SEASEATTLE-TACOMA INTL
METARs for nearby airports:
N 0 432' KSEA 240453Z 36005KT 10SM BKN250 09/07 A3046
NE 4 32' KRNT 240453Z 34007KT 10SM CLR 11/07 A3046
N 4 21' KBFI 240453Z 00000KT 10SM CLR 10/07 A3047
SW 15 294' KTIW 240453Z 03004KT 10SM CLR 08/07 A3045
W 18 444' KPWT 240456Z 07005KT 10SM CLR 07/06 A3045
S 19 322' KTCM 240458Z 00000KT 10SM CLR 06/06 A3046
S 20 537' KPLU 240455Z 00000KT 10SM CLR 07/07 A3046
SW 24 301' KGRF 240358Z 00000KT 10SM CLR 09/09 A3044
N 27 607' KPAE 240453Z 00000KT 10SM SCT110 08/07 A3045
W 36 272' KSHN 240453Z 00000KT 6SM BR CLR 07/06 A3043
SW 37 207' KOLM 240454Z 04004KT 10SM CLR 08/07 A3045
N 43 141' KAWO 240456Z 15003KT 6SM BR BKN110 06/06 A3045
SW 53 177' KCLS 240455Z 00000KT 10SM 08/07 A3044
N 55 47' KNUW 240456Z 00000KT 10SM FEW070 SCT110 BKN250 09/06 A3049
NW 60 13' KNOW 240450Z 00000KT 10SM OVC090 09/08 A3044
N 61 145' KBVS 240455Z 00000KT 10SM OVC110 08/07 A3045
NW 62 291' KCLM 240453Z 00000KT 10SM OVC090 07/06 A3045
NW 70 112' KFHR 240453Z 00000KT 10SM FEW090 07/06 A3046
SW 72 17' KHQM 240453Z VRB03KT 10SM CLR 11/09 A3044
E 76 1763' KELN 240453Z 35003KT 10SM CLR 05/00 A3044
N 79 34' KORS 240455Z 00000KT 10SM FEW090 08/08 A3045
N 81 171' KBLI 240453Z 00000KT 10SM OVC100 09/06 A3045
S 83 20' KKLS 240456Z 29004KT 10SM CLR 09/07 A3043
NW 84 64' CYYJ 240400Z 00000KT 15SM SCT100 OVC120 09/08 A3046
E 85 1248' KEAT 240455Z 00000KT 10SM CLR 09/01 A3043
SE 89 1098' KYKM 240453Z 27005KT 10SM CLR 03/00 A3045
W 95 193' KUIL 240453Z 00000KT 10SM SCT090 08/07 A3043
TAFs for nearby airports:
N 0 432' KSEA TAF
  AMD KSEA 240301Z 2403/2506 35007KT P6SM BKN250
  FM240900 04005KT 5SM BR OVC250
  TEMPO 2412/2416 2SM BR
  FM241800 35005KT P6SM BKN250
  FM250400 02003KT P6SM BKN250
N 4 21' KBFI KBFI 232324Z 2400/2424 35003KT P6SM SCT250
  FM240300 00000KT P6SM SCT250
  FM241200 00000KT 4SM BR SCT008 SCT050 OVC250
  FM241800 13004KT P6SM BKN250
W 18 444' KPWT TAF KPWT 232324Z 2400/2424 03007KT P6SM SCT250
  FM240900 00000KT 4SM BR SCT004 SCT250
  FM241200 00000KT 2SM BR OVC004
  FM241700 00000KT 2SM BR SCT004 OVC007
  FM241900 00000KT P6SM SCT004 BKN250
S 19 322' KTCM TAF KTCM 240500Z 2405/2511 VRB06KT 9999 SCT200 QNH3045INS
  BECMG 2408/2409 VRB06KT 4800 BR SCT100 QNH3043INS
  BECMG 2412/2413 VRB06KT 1600 BR SCT007 SCT080 QNH3040INS
  BECMG 2416/2417 35009KT 9999 NSW SCT080 QNH3028INS
  BECMG 2503/2504 VRB06KT 9999 SCT030 QNH3020INS
  BECMG 2509/2510 20009KT 9999 BKN030 QNH3018INS TX16/2423Z TN04/2413Z
SW 24 301' KGRF TAF
  AMD KGRF 232304Z 2323/2503 36012KT 9999 FEW250 QNH3046INS
  BECMG 2405/2406 VRB06KT 6000 BR SCT050 QNH3046INS
  BECMG 2416/2417 03012KT 9999 NSW SCT060 SCT200 QNH3042INS
  BECMG 2500/2501 01009KT 9999 BKN030 QNH3031INS TX14/2323Z TN09/2407Z
N 27 607' KPAE KPAE 232324Z 2400/2424 00000KT P6SM SCT250
  FM241200 03004KT 4SM BR SCT004 SCT250
  FM241800 14005KT P6SM SCT050 OVC150
SW 37 207' KOLM TAF KOLM 232324Z 2400/2424 03004KT P6SM SCT250
  FM240900 00000KT 1/2SM FG SCT250
  FM241200 00000KT 1/2SM FG OVC004
  FM241800 00000KT 2SM BR OVC007
  FM241900 27003KT P6SM SCT250
N 55 47' KNUW TAF KNUW 2323/2423 VRB06KT 9999 FEW022 SCT050 BKN190 BKN250 QNH3046INS
  TEMPO 2323/2401 29008KT
  FM240400 VRB06KT 9999 SCT085 BKN110 BKN180 BKN250 QNH3043INS
  FM241000 12007KT 9999 VCSH FEW020 BKN050 BKN100 OVC200 QNH3039INS
  TEMPO 2410/2416 00000KT 1600 DZ BR SCT006 OVC040
  FM241800 VRB06KT 9999 SCT034 BKN050 OVC100 QNH3028INS T15/2323Z T08/2413Z FS30046
NW 62 291' KCLM KCLM 232324Z 2400/2424 09005KT P6SM BKN250
  FM240900 20003KT P6SM SCT050 SCT250
  FM241200 17003KT 4SM BR SCT008 OVC050
  FM241800 24005KT P6SM OVC050
SW 72 17' KHQM KHQM 232324Z 2400/2424 12005KT P6SM BKN250
  FM241200 07004KT 4SM BR SCT005 BKN050 OVC250
  FM241800 07005KT P6SM SCT250
N 81 171' KBLI KBLI 232324Z 2400/2424 28005KT P6SM SCT250
  FM240900 18002KT P6SM SCT004 OVC100
  FM241500 14004KT P6SM OVC050
E 85 1248' KEAT TAF KEAT 232320Z 2400/2424 12006KT P6SM SCT250
  FM240300 VRB03KT P6SM FEW100 SCT150 BKN250
  FM241800 VRB03KT P6SM FEW060 SCT250
SE 89 1098' KYKM TAF KYKM 232320Z 2400/2424 VRB04KT P6SM SCT250
  FM240300 27005KT P6SM SCT250
  FM241900 VRB03KT P6SM FEW250
Area forecast:
000
FAUS46 KKCI 101945
FA6W  
SFOC FA 101945
SYNOPSIS AND VFR CLDS/WX
SYNOPSIS VALID UNTIL 111400
CLDS/WX VALID UNTIL 110800...OTLK VALID 110800-111400
WA OR CA AND CSTL WTRS
.
SEE AIRMET SIERRA FOR IFR CONDS AND MTN OBSCN.
TS IMPLY SEV OR GTR TURB SEV ICE LLWS AND IFR CONDS.
NON MSL HGTS DENOTED BY AGL OR CIG.
.
SYNOPSIS...UPR LVL TROF WAS LOCATED NR 130W. MOIST SWLY FLOW
EXTDS FROM PAC NW EWD INTO NRN ROCKIES. HIGH PRES RIDGE WAS OVR
MUCH OF THE REST OF THE AREA. BY 14Z...UPR LVL TROF WILL EXTD
FROM WA-OR SWD INTO CA.  ..STREIB..
.
WA CASCDS WWD
CSTL SXNS
CSTLN-INLAND...SCT-BKN025 BKN035-050 TOPS 120-140. ISOL -SHRA.
   OTLK...MVFR CIGS SHRA BR.
PUGET SOUND-INTR VLY...SCT-BKN020 BKN-OVC035-050 TOPS 160 BKN CI.
   WDLY SCT -SHRA. OTLK...MVFR CIGS SHRA.
CASCDS...BKN-OVC050-070 TOPS FL180. BKN CI ABV. WDLY SCT -SHRA.
   OTLK...MVFR CIGS SHRA.
.
WA E OF CASCDS
CNTRL WA...SCT140 OVC CI. BECMG 2302 SCT080 BKN120 LYRD FL240.
   OTLK...VFR.
ERN WA...SCT-BKN140-160 LYRD FL240. BECMG 0508 BKN080 OVC120
   LYRD FL240 ISOL -SHRA DVLPG. OTLK...VFR.
.
OR CASCDS WWD
CSTL SXNS
CSTLN-INLAND...SCT-BKN020 BKN-OVC035-050 TOPS FL180. WDLY SCT
   -SHRA. OTLK...MVFR CIGS SHRA.
WILLAMETTE VLY/SWRN INTR...SCT-BKN020 BKN-OVC035-050 TOPS FL180.
   WDLY SCT -SHRA. OTLK...MVFR CIGS SHRA.
CASCDS...SCT-BKN060 BKN-OVC080-100 TOPS FL180 ISOL -SHRA.
   OTLK...MVFR CIGS SHRA.
.
OR E OF CASCDS
CNTRL...SCT100-120 BKN150 LYRD FL240. OTLK...VFR.
ERN...SCT130-150 BKN CI. BECMG 0205 OVC120-140 LYRD FL240.
   OTLK...VFR.
.
NRN CA...STS-SAC-TVL LN NWD
CSTL SXNS...
   FOT NWD...SCT025 BKN CI ABV. BECMG 0205 SCT020 OVC050 TOPS
      160. ISOL -SHRA. OTLK...IFR CIGS.
   S OF FOT...SCT-BKN010 TOPS 030-040. OTLK...IFR CIGS.
REST OF AREA...SKC OCNL SCT CI. OCNL VYS 3-5SM FU HZ.
   OTLK...VFR.
SAC VLY...
   NRN AND CNTRL SXNS...SKC. OTLK...VFR.
   SRN SXNS...SKC. OCNL VIS 3-5SM FU HZ. OTLK...MVFR FU HZ.
SHASTA-SISKIYOUS-NERN CA...
NRN SIERRAS...SKC OCNL SCT CI. WINDS SLY G25KT. OTLK...VFR WIND.
.
CNTRL CA
CSTL SXNS...
   CSTLN...SKC OCNL SCT010. BECMG 0508 OCNL CIGS BKN-SCT010 TOPS
      020-030. OTLK...IFR CIGS.
   INLAND...SKC. OTLK...VFR BECMG 1114 IFR CIGS BR.
SAN JOAQUIN VLY...SKC. OTLK...VFR.
SRN SIERRAS..SKC. OTLK...VFR.
.
SRN CA..VBG-NID-60NNW BIH LN SWD
CSTL SXNS...
   CSTLN...
      EXTRM SRN SXNS...SKC. BECMG 0205 SCT010. BECMG 0508 CIGS
         BKN-OVC010 TOPS 030. OTLK...IFR CIGS.
      REST OF AREA...SKC. OTLK...VFR BECMG 0811 IFR CIGS BR.
   INLAND...SKC OCNL FEW CI. OTLK...VFR.
INTR MTNS-MOJAVE-SRN DESERTS...SKC OCNL FEW CI. OTLK...VFR.
.
CSTL WTRS
WA...SCT-BKN035-050 TOPS 100-120. ISOL -SHRA. OTLK...VFR.
OR...
NWRN HLF...SCT-BKN035-050 TOPS 100-120. ISOL -SHRA. OTLK...VFR.
SERN HLF...SCT-BKN025 BKN035-050 TOPS FL180 BKN CI ABV. WDLY SCT
   -SHRA. OTLK...MVFR CIGS SHRA.
CA...
NRN CA...
   FOT NWD...SCT025 BKN CI ABV. BECMG 0205 SCT020 OVC050 TOPS
      160. ISOL -SHRA. OTLK...IFR CIGS.
   S OF FOT...SCT-BKN010 TOPS 030-040. OTLK...IFR CIGS.
CNTRL CA...SCT-BKN010 TOPS 030-040. OTLK...IFR CIGS.
SRN CA...
   OUTER CSTL WTRS...CIGS BKN010-020 TOPS 030-050.
      OTLK...IFR CIGS.
   ADJ CSTL WTRS...SKC. OCNL AGL SCT010. OTLK...VFR BECMG 0811
      IFR CIGS BR.
.
THE AREA FORECAST WILL TERMINATE AT 2359Z ON 10 OCTOBER 2017. IN
PLACE OF THE AREA FORECAST...PLEASE SEE THE GRAPHICAL FORECAST AT
WWW.AVIATIONWEATHER.GOV/GFA. GRAPHICAL AND TEXT AIRMETS WILL
CONTINUE AS REGULARLY SCHEDULED.
....

Shortcut to this page: http://wxbay.com.

Data may contain errors.